Time;durP1;ratioP1;P1;durP2;ratioP2;P2;SDS_P1;SDS_P2;PMS_P1;PMS_P2;Temp;Humidity;BMP_temperature;BMP_pressure;BME280_temperature;BME280_humidity;BME280_pressure;Samples;Min_cycle;Max_cycle;Signal;HPM_P1;HPM_P2
2023/12/19 00:02:23;;;;;;;7.40;5.88;;;15.90;59.80;;;;;;5113071;28;20173;-63
2023/12/19 00:04:49;;;;;;;7.32;6.28;;;15.90;59.80;;;;;;5113380;28;20203;-63
2023/12/19 00:07:14;;;;;;;6.57;5.57;;;15.90;59.80;;;;;;5112548;28;20214;-63
2023/12/19 00:09:40;;;;;;;7.55;6.05;;;15.90;59.90;;;;;;5113476;28;20173;-64
2023/12/19 00:12:07;;;;;;;7.78;5.75;;;15.90;59.80;;;;;;5113359;28;20204;-64
2023/12/19 00:14:33;;;;;;;7.75;6.35;;;15.90;59.90;;;;;;5112258;28;20578;-63
2023/12/19 00:17:01;;;;;;;7.97;6.05;;;15.80;59.90;;;;;;5112603;28;20165;-63
2023/12/19 00:19:27;;;;;;;7.20;6.05;;;15.90;60.00;;;;;;5113064;28;20180;-63
2023/12/19 00:21:52;;;;;;;7.57;5.78;;;15.80;60.00;;;;;;5112629;28;20173;-63
2023/12/19 00:24:18;;;;;;;6.82;5.70;;;15.80;60.00;;;;;;5112951;28;20161;-64
2023/12/19 00:26:43;;;;;;;8.70;6.68;;;15.80;59.90;;;;;;5113312;28;20184;-64
2023/12/19 00:29:09;;;;;;;7.53;5.97;;;15.80;59.90;;;;;;5112509;28;20510;-63
2023/12/19 00:31:34;;;;;;;7.18;6.03;;;15.80;59.90;;;;;;5094370;28;20209;-63
2023/12/19 00:34:00;;;;;;;6.30;5.40;;;15.80;60.00;;;;;;5112908;28;20647;-64
2023/12/19 00:36:25;;;;;;;7.70;6.10;;;15.80;60.00;;;;;;5112091;28;20184;-64
2023/12/19 00:38:51;;;;;;;7.05;6.35;;;15.80;60.00;;;;;;5113021;28;20176;-64
2023/12/19 00:41:16;;;;;;;7.60;6.30;;;15.80;60.00;;;;;;5112610;28;20673;-63
2023/12/19 00:43:43;;;;;;;6.60;5.85;;;15.80;60.10;;;;;;5112098;28;20181;-64
2023/12/19 00:46:08;;;;;;;6.75;6.07;;;15.80;60.10;;;;;;5112712;28;20177;-64
2023/12/19 00:48:34;;;;;;;6.05;5.53;;;15.80;60.10;;;;;;5112639;28;20179;-63
2023/12/19 00:50:59;;;;;;;7.03;6.05;;;15.80;60.10;;;;;;5111722;28;20221;-63
2023/12/19 00:53:25;;;;;;;7.78;6.10;;;15.70;60.00;;;;;;5112311;28;20222;-63
2023/12/19 00:55:50;;;;;;;6.43;5.68;;;15.70;60.10;;;;;;5112092;28;20226;-63
2023/12/19 00:58:16;;;;;;;7.50;5.57;;;15.70;60.10;;;;;;5112365;28;20226;-63
2023/12/19 01:00:41;;;;;;;6.80;6.10;;;15.70;60.10;;;;;;5112559;28;20176;-62
2023/12/19 01:03:07;;;;;;;6.38;5.78;;;15.70;60.10;;;;;;5112160;28;20223;-63
2023/12/19 01:05:32;;;;;;;6.82;6.13;;;15.70;60.10;;;;;;5112281;28;20542;-63
2023/12/19 01:07:58;;;;;;;6.75;5.72;;;15.70;60.20;;;;;;5112690;28;20644;-64
2023/12/19 01:10:23;;;;;;;5.70;5.20;;;15.70;60.20;;;;;;5111703;28;20331;-63
2023/12/19 01:12:49;;;;;;;6.60;5.90;;;15.70;60.20;;;;;;5112506;28;20792;-63
2023/12/19 01:15:14;;;;;;;7.18;5.93;;;15.60;60.20;;;;;;5112146;28;20177;-64
2023/12/19 01:17:40;;;;;;;6.07;5.43;;;15.70;60.30;;;;;;5111745;28;20647;-63
2023/12/19 01:20:06;;;;;;;6.75;6.07;;;15.70;60.30;;;;;;5112409;28;20218;-64
2023/12/19 01:22:31;;;;;;;6.22;5.32;;;15.70;60.30;;;;;;5112061;28;20557;-63
2023/12/19 01:24:57;;;;;;;6.45;5.80;;;15.70;60.30;;;;;;5111661;28;20173;-63
2023/12/19 01:27:22;;;;;;;5.45;4.95;;;15.70;60.40;;;;;;5112137;28;20180;-63
2023/12/19 01:29:48;;;;;;;6.00;5.38;;;15.60;60.30;;;;;;5116318;28;20176;-63
2023/12/19 01:32:13;;;;;;;6.30;5.28;;;15.60;60.40;;;;;;5115541;28;20212;-63
2023/12/19 01:34:39;;;;;;;6.20;5.60;;;15.60;60.30;;;;;;5116537;28;20169;-63
2023/12/19 01:37:04;;;;;;;6.60;5.90;;;15.60;60.30;;;;;;5115624;28;20181;-64
2023/12/19 01:39:30;;;;;;;6.00;5.40;;;15.60;60.30;;;;;;5115265;28;20575;-64
2023/12/19 01:41:55;;;;;;;7.85;6.05;;;15.60;60.40;;;;;;5116229;28;20177;-64
2023/12/19 01:44:21;;;;;;;7.60;5.70;;;15.60;60.40;;;;;;5115801;28;20168;-64
2023/12/19 01:46:47;;;;;;;7.28;5.88;;;15.60;60.40;;;;;;5115643;28;20185;-63
2023/12/19 01:49:13;;;;;;;6.68;5.95;;;15.60;60.40;;;;;;5116381;28;20620;-63
2023/12/19 01:51:38;;;;;;;7.57;5.93;;;15.60;60.40;;;;;;5115764;28;20234;-63
2023/12/19 01:54:04;;;;;;;6.35;5.75;;;15.60;60.50;;;;;;5097261;28;20326;-64
2023/12/19 01:56:29;;;;;;;6.22;5.50;;;15.60;60.40;;;;;;5115755;28;20263;-63
2023/12/19 01:58:55;;;;;;;6.35;5.72;;;15.60;60.50;;;;;;5097687;28;20173;-63
2023/12/19 02:01:23;;;;;;;6.40;5.60;;;15.60;60.40;;;;;;5096869;28;20171;-62
2023/12/19 02:03:49;;;;;;;7.90;6.38;;;15.60;60.50;;;;;;5098228;28;20191;-63
2023/12/19 02:06:15;;;;;;;6.43;5.82;;;15.60;60.50;;;;;;5079857;28;20635;-63
2023/12/19 02:08:40;;;;;;;6.03;5.43;;;15.60;60.50;;;;;;5115826;28;20188;-64
2023/12/19 02:11:06;;;;;;;8.23;6.15;;;15.60;60.50;;;;;;5115724;28;20205;-64
2023/12/19 02:13:31;;;;;;;6.43;5.78;;;15.60;60.50;;;;;;5079481;28;20177;-63
2023/12/19 02:15:57;;;;;;;7.95;6.05;;;15.60;60.60;;;;;;5115813;28;20175;-63
2023/12/19 02:18:25;;;;;;;7.30;6.15;;;15.50;60.60;;;;;;5115418;28;20669;-63
2023/12/19 02:20:51;;;;;;;7.38;6.18;;;15.60;60.70;;;;;;5114949;28;20169;-63
2023/12/19 02:23:16;;;;;;;6.35;5.55;;;15.50;60.60;;;;;;5115294;28;20183;-63
2023/12/19 02:25:42;;;;;;;6.20;5.60;;;15.50;60.60;;;;;;5115451;28;20632;-63
2023/12/19 02:28:08;;;;;;;6.57;5.60;;;15.50;60.60;;;;;;5114777;28;20173;-65
2023/12/19 02:30:36;;;;;;;5.55;5.05;;;15.50;60.60;;;;;;5115295;28;20177;-63
2023/12/19 02:33:02;;;;;;;6.03;5.43;;;15.50;60.70;;;;;;5115383;28;20209;-63
2023/12/19 02:35:28;;;;;;;6.10;5.50;;;15.50;60.80;;;;;;5114469;28;20169;-64
2023/12/19 02:37:54;;;;;;;6.05;5.30;;;15.50;60.80;;;;;;5115250;28;20181;-64
2023/12/19 02:40:19;;;;;;;6.03;5.25;;;15.50;60.70;;;;;;5114268;28;20169;-64
2023/12/19 02:42:45;;;;;;;5.55;5.03;;;15.50;60.80;;;;;;5114289;28;20173;-63
2023/12/19 02:45:10;;;;;;;6.70;6.03;;;15.50;60.70;;;;;;5115165;28;20523;-63
2023/12/19 02:47:36;;;;;;;6.60;5.40;;;15.50;60.80;;;;;;5114650;28;20696;-64
2023/12/19 02:50:02;;;;;;;5.50;4.95;;;15.50;60.80;;;;;;5114021;28;20229;-63
2023/12/19 02:52:27;;;;;;;7.53;5.80;;;15.50;60.80;;;;;;5114579;28;20258;-64
2023/12/19 02:54:53;;;;;;;6.20;5.28;;;15.50;60.80;;;;;;5114835;28;20184;-63
2023/12/19 02:57:18;;;;;;;6.45;5.13;;;15.40;60.80;;;;;;5113758;28;20225;-63
2023/12/19 02:59:44;;;;;;;6.65;5.60;;;15.40;60.80;;;;;;5114965;28;20225;-63
2023/12/19 03:02:09;;;;;;;6.07;5.38;;;15.40;60.70;;;;;;5114843;28;20234;-63
2023/12/19 03:04:35;;;;;;;6.32;5.65;;;15.40;60.80;;;;;;5113792;28;20189;-62
2023/12/19 03:07:01;;;;;;;6.03;5.43;;;15.40;60.80;;;;;;5114698;28;20173;-63
2023/12/19 03:09:26;;;;;;;5.68;5.07;;;15.40;60.80;;;;;;5113596;28;20233;-63
2023/12/19 03:12:05;;;;;;;7.28;6.22;;;15.40;60.80;;;;;;5114303;28;20197;-63
2023/12/19 03:14:34;;;;;;;6.22;5.55;;;15.40;60.80;;;;;;5114294;28;20177;-63
2023/12/19 03:17:07;;;;;;;6.00;5.40;;;15.40;60.80;;;;;;5113684;28;20205;-63
2023/12/19 03:19:32;;;;;;;5.78;5.18;;;15.40;61.70;;;;;;5114249;28;20177;-63
2023/12/19 03:21:58;;;;;;;5.40;4.90;;;15.40;60.80;;;;;;5113246;28;20177;-63
2023/12/19 03:24:23;;;;;;;5.80;5.30;;;15.40;60.80;;;;;;5113248;28;21082;-63
2023/12/19 03:26:49;;;;;;;6.30;5.70;;;15.40;60.80;;;;;;5113291;28;20193;-63
2023/12/19 03:29:17;;;;;;;6.25;4.97;;;15.40;60.80;;;;;;5114025;28;20177;-63
2023/12/19 03:31:43;;;;;;;5.97;5.38;;;15.40;60.90;;;;;;5113492;28;20204;-63
2023/12/19 03:34:09;;;;;;;5.70;5.10;;;15.40;60.90;;;;;;5114219;28;20169;-63
2023/12/19 03:36:34;;;;;;;5.65;5.15;;;15.40;60.90;;;;;;5113711;28;20639;-63
2023/12/19 03:39:00;;;;;;;5.10;4.70;;;15.40;61.00;;;;;;5113224;28;20227;-64
2023/12/19 03:41:25;;;;;;;5.88;5.00;;;15.40;61.00;;;;;;5113885;28;20177;-64
2023/12/19 03:43:51;;;;;;;6.45;5.20;;;15.40;61.00;;;;;;5113818;28;20181;-64
2023/12/19 03:46:16;;;;;;;5.95;5.35;;;15.40;61.00;;;;;;5112797;28;20181;-64
2023/12/19 03:48:44;;;;;;;6.45;5.35;;;15.40;61.00;;;;;;5113905;28;20178;-63
2023/12/19 03:51:10;;;;;;;5.95;5.35;;;15.30;61.00;;;;;;5112982;28;20311;-64
2023/12/19 03:53:36;;;;;;;5.90;5.30;;;15.40;61.10;;;;;;5112337;28;20726;-63
2023/12/19 03:56:01;;;;;;;7.10;6.00;;;15.30;61.80;;;;;;5113836;28;20232;-63
2023/12/19 03:58:27;;;;;;;6.65;5.80;;;15.40;61.00;;;;;;5113488;28;20171;-63
2023/12/19 04:00:52;;;;;;;8.20;5.35;;;15.30;61.00;;;;;;5113008;28;20175;-63
2023/12/19 04:03:18;;;;;;;5.88;5.28;;;15.30;61.00;;;;;;5113302;28;20264;-63
2023/12/19 04:05:44;;;;;;;6.38;5.40;;;15.30;61.00;;;;;;5112874;28;20181;-64
2023/12/19 04:08:10;;;;;;;5.97;5.35;;;15.30;61.00;;;;;;5113352;28;20169;-63
2023/12/19 04:10:35;;;;;;;6.15;5.47;;;15.30;61.10;;;;;;5113224;28;20191;-64
2023/12/19 04:13:01;;;;;;;6.15;4.93;;;15.30;61.00;;;;;;5112481;28;20885;-63
2023/12/19 04:15:26;;;;;;;6.72;5.07;;;15.30;61.00;;;;;;5112969;28;20188;-64
2023/12/19 04:17:52;;;;;;;5.45;4.90;;;15.30;61.10;;;;;;5113406;28;20177;-63
2023/12/19 04:20:17;;;;;;;5.28;4.78;;;15.30;61.00;;;;;;5112385;28;20514;-63
2023/12/19 04:22:43;;;;;;;6.25;5.57;;;15.30;61.00;;;;;;5113139;28;20649;-63
2023/12/19 04:25:08;;;;;;;5.57;4.95;;;15.30;61.10;;;;;;5113464;28;20179;-64
2023/12/19 04:27:37;;;;;;;5.85;5.07;;;15.30;61.20;;;;;;5112328;28;20177;-63
2023/12/19 04:30:03;;;;;;;5.65;4.88;;;15.20;61.00;;;;;;5113210;28;20168;-63
2023/12/19 04:32:28;;;;;;;5.57;5.07;;;15.20;61.00;;;;;;5112683;28;20223;-63
2023/12/19 04:34:54;;;;;;;5.20;4.72;;;15.30;61.10;;;;;;5112362;28;20173;-63
2023/12/19 04:37:19;;;;;;;5.25;4.65;;;15.30;61.10;;;;;;5112687;28;20169;-63
2023/12/19 04:39:45;;;;;;;5.22;4.72;;;15.20;61.00;;;;;;5113027;28;20169;-64
2023/12/19 04:42:17;;;;;;;5.20;4.70;;;15.20;61.00;;;;;;5112364;28;20542;-64
2023/12/19 04:44:45;;;;;;;5.28;4.78;;;15.20;61.10;;;;;;5112837;28;20201;-64
2023/12/19 04:47:11;;;;;;;5.68;5.07;;;15.20;61.10;;;;;;5112857;28;20230;-64
2023/12/19 04:49:37;;;;;;;4.90;4.50;;;15.20;61.10;;;;;;5111920;28;20170;-64
2023/12/19 04:52:03;;;;;;;5.03;4.53;;;15.20;61.10;;;;;;5112584;28;20209;-64
2023/12/19 04:54:28;;;;;;;4.93;4.40;;;15.20;61.10;;;;;;5112549;28;20205;-64
2023/12/19 04:56:54;;;;;;;4.75;4.30;;;15.20;61.10;;;;;;5112234;28;20204;-63
2023/12/19 04:59:19;;;;;;;5.47;4.65;;;15.20;61.10;;;;;;5112499;28;20256;-63
2023/12/19 05:01:45;;;;;;;4.57;4.18;;;15.20;61.10;;;;;;5112580;28;20580;-63
2023/12/19 05:04:10;;;;;;;5.35;4.47;;;15.20;61.10;;;;;;5111651;28;20722;-63
2023/12/19 05:06:36;;;;;;;5.82;4.82;;;15.20;61.10;;;;;;5112167;28;20659;-63
2023/12/19 05:09:02;;;;;;;4.82;4.43;;;15.20;61.20;;;;;;5111860;28;20628;-63
2023/12/19 05:11:28;;;;;;;5.25;4.15;;;15.20;61.20;;;;;;5112307;28;20239;-63
2023/12/19 05:13:53;;;;;;;4.20;3.90;;;15.20;61.20;;;;;;5112474;28;20200;-64
2023/12/19 05:16:19;;;;;;;5.05;4.35;;;15.20;62.00;;;;;;5111505;28;20180;-64
2023/12/19 05:18:45;;;;;;;4.78;4.18;;;15.20;61.20;;;;;;5112519;28;20231;-63
2023/12/19 05:21:11;;;;;;;4.20;3.80;;;15.20;61.30;;;;;;5112367;28;20606;-64
2023/12/19 05:23:37;;;;;;;4.57;4.18;;;15.20;61.30;;;;;;5111469;28;20241;-63
2023/12/19 05:26:06;;;;;;;4.10;3.72;;;15.20;61.30;;;;;;5112557;28;20181;-63
2023/12/19 05:28:34;;;;;;;3.88;3.58;;;15.20;61.30;;;;;;5112149;28;20272;-63
2023/12/19 05:30:59;;;;;;;3.80;3.42;;;15.20;61.30;;;;;;5111673;28;20177;-63
2023/12/19 05:33:28;;;;;;;3.92;3.63;;;15.20;61.30;;;;;;5111907;28;20173;-63
2023/12/19 05:35:54;;;;;;;4.20;3.80;;;15.20;61.40;;;;;;5112214;28;20175;-64
2023/12/19 05:38:20;;;;;;;3.70;3.40;;;15.20;61.30;;;;;;5111395;28;20547;-64
2023/12/19 05:40:51;;;;;;;3.85;3.55;;;15.10;61.40;;;;;;5112458;28;20177;-64
2023/12/19 05:43:17;;;;;;;3.70;3.40;;;15.10;61.40;;;;;;5111978;28;20173;-64
2023/12/19 05:45:42;;;;;;;3.95;3.55;;;15.10;61.40;;;;;;5111570;28;20180;-64
2023/12/19 05:48:08;;;;;;;4.05;3.45;;;15.10;61.40;;;;;;5112155;28;20174;-64
2023/12/19 05:50:34;;;;;;;3.80;3.40;;;15.10;61.40;;;;;;5111801;28;20311;-64
2023/12/19 05:52:59;;;;;;;3.20;2.90;;;15.10;61.40;;;;;;5111548;28;20213;-63
2023/12/19 05:55:25;;;;;;;3.67;3.38;;;15.10;61.50;;;;;;5111862;28;20214;-64
2023/12/19 05:57:51;;;;;;;3.80;3.30;;;15.10;61.40;;;;;;5112218;28;20184;-64
2023/12/19 06:00:17;;;;;;;4.15;3.55;;;15.10;61.50;;;;;;5110565;28;20176;-63
2023/12/19 06:02:46;;;;;;;3.67;3.38;;;15.10;61.50;;;;;;5111990;28;20177;-63
2023/12/19 06:05:12;;;;;;;3.60;3.30;;;15.10;61.40;;;;;;5111949;28;20177;-63
2023/12/19 06:07:37;;;;;;;4.07;3.67;;;15.10;61.60;;;;;;5111545;28;20616;-63
2023/12/19 06:10:08;;;;;;;3.20;2.92;;;15.10;61.50;;;;;;5112119;28;20227;-64
2023/12/19 06:12:33;;;;;;;3.28;2.97;;;15.20;61.40;;;;;;5110941;28;20213;-64
2023/12/19 06:14:59;;;;;;;3.60;3.30;;;15.20;61.40;;;;;;5112763;28;20226;-65
2023/12/19 06:17:25;;;;;;;3.70;3.13;;;15.20;61.30;;;;;;5115202;28;20639;-64
2023/12/19 06:19:50;;;;;;;3.35;3.05;;;15.30;61.30;;;;;;5115105;28;20169;-63
2023/12/19 06:22:16;;;;;;;3.22;2.95;;;15.30;61.20;;;;;;5115337;28;20707;-66
2023/12/19 06:24:45;;;;;;;3.20;2.80;;;15.40;61.20;;;;;;5115558;28;20271;-63
2023/12/19 06:27:12;;;;;;;2.88;2.67;;;15.40;62.00;;;;;;5114713;28;20184;-63
2023/12/19 06:29:38;;;;;;;2.92;2.63;;;15.40;61.00;;;;;;5115069;28;20177;-63
2023/12/19 06:32:03;;;;;;;3.00;2.70;;;15.50;61.20;;;;;;5115209;28;20253;-63
2023/12/19 06:34:29;;;;;;;3.08;2.78;;;15.50;61.20;;;;;;5114373;28;20173;-63
2023/12/19 06:36:54;;;;;;;2.55;2.35;;;15.50;61.00;;;;;;5115088;28;20706;-63
2023/12/19 06:39:20;;;;;;;3.35;3.05;;;15.50;61.00;;;;;;5115015;28;20264;-64
2023/12/19 06:41:45;;;;;;;2.80;2.50;;;15.60;60.90;;;;;;5114407;28;20192;-64
2023/12/19 06:44:12;;;;;;;2.95;2.67;;;15.60;60.80;;;;;;5114851;28;20173;-64
2023/12/19 06:46:38;;;;;;;2.80;2.60;;;15.60;60.90;;;;;;5114653;28;20173;-64
2023/12/19 06:49:04;;;;;;;3.17;2.70;;;15.60;60.80;;;;;;5114512;28;20165;-63
2023/12/19 06:51:29;;;;;;;2.63;2.42;;;15.50;60.80;;;;;;5114426;28;20225;-63
2023/12/19 06:53:55;;;;;;;3.10;2.80;;;15.50;60.90;;;;;;5114855;28;20242;-63
2023/12/19 06:56:21;;;;;;;2.85;2.63;;;15.50;61.00;;;;;;5113847;28;20200;-63
2023/12/19 06:58:47;;;;;;;3.28;2.97;;;15.50;61.00;;;;;;5114825;28;20700;-62
2023/12/19 07:01:14;;;;;;;2.80;2.60;;;15.60;60.90;;;;;;5114429;28;20173;-63
2023/12/19 07:03:41;;;;;;;2.63;2.42;;;15.50;60.90;;;;;;5114155;28;20178;-63
2023/12/19 07:06:11;;;;;;;2.70;2.50;;;15.60;60.90;;;;;;5114823;28;20197;-63
2023/12/19 07:08:37;;;;;;;2.65;2.45;;;15.70;60.80;;;;;;5113616;28;20202;-63
2023/12/19 07:11:02;;;;;;;2.80;2.60;;;15.80;60.80;;;;;;5096314;28;20590;-63
2023/12/19 07:13:28;;;;;;;2.58;2.38;;;15.80;60.60;;;;;;5114105;28;20945;-63
2023/12/19 07:15:53;;;;;;;2.85;2.42;;;15.80;60.50;;;;;;5114022;28;20292;-63
2023/12/19 07:18:19;;;;;;;2.75;2.55;;;15.80;60.40;;;;;;5114321;28;20271;-63
2023/12/19 07:20:45;;;;;;;3.08;2.78;;;15.80;60.40;;;;;;5114467;28;20173;-63
2023/12/19 07:23:10;;;;;;;2.38;2.28;;;15.90;60.40;;;;;;5113723;28;20263;-63
2023/12/19 07:25:36;;;;;;;2.58;2.28;;;16.00;60.30;;;;;;5114029;28;20260;-63
2023/12/19 07:28:02;;;;;;;2.63;2.42;;;16.10;60.20;;;;;;5114114;28;20263;-63
2023/12/19 07:30:28;;;;;;;2.92;2.63;;;16.30;60.10;;;;;;5113398;28;20237;-63
2023/12/19 07:32:53;;;;;;;2.53;2.33;;;16.40;59.80;;;;;;5113877;28;20208;-63
2023/12/19 07:35:19;;;;;;;2.60;2.38;;;16.60;59.60;;;;;;5113939;28;20173;-63
2023/12/19 07:37:47;;;;;;;2.45;2.25;;;16.70;59.40;;;;;;5113418;28;20541;-63
2023/12/19 07:40:13;;;;;;;3.05;2.75;;;16.80;59.20;;;;;;5113905;28;20522;-63
2023/12/19 07:42:44;;;;;;;3.47;2.40;;;17.00;59.10;;;;;;5113895;28;20261;-65
2023/12/19 07:45:13;;;;;;;4.28;2.30;;;17.20;58.80;;;;;;5113433;28;20325;-67
2023/12/19 07:47:39;;;;;;;3.10;2.50;;;17.20;58.70;;;;;;5095904;28;20177;-66
2023/12/19 07:50:05;;;;;;;2.55;2.30;;;17.30;58.60;;;;;;5113689;28;20229;-73
2023/12/19 07:52:31;;;;;;;4.18;2.33;;;17.30;58.70;;;;;;5112341;28;20349;-64
2023/12/19 07:54:56;;;;;;;3.30;2.40;;;17.40;58.50;;;;;;5113525;28;20255;-64
2023/12/19 07:57:22;;;;;;;4.50;2.63;;;17.40;58.70;;;;;;5113386;28;20256;-63
2023/12/19 07:59:48;;;;;;;3.30;3.00;;;17.40;58.70;;;;;;5113124;28;20306;-64
2023/12/19 08:02:13;;;;;;;2.78;2.42;;;17.40;58.70;;;;;;5113390;28;20184;-65
2023/12/19 08:04:40;;;;;;;3.65;2.67;;;17.40;58.80;;;;;;5113609;28;20176;-65
2023/12/19 08:07:07;;;;;;;5.03;3.03;;;17.40;59.30;;;;;;5112181;28;20257;-66
2023/12/19 08:09:33;;;;;;;2.72;2.45;;;17.40;58.80;;;;;;5113161;28;20230;-66
2023/12/19 08:11:58;;;;;;;6.65;3.22;;;17.40;58.80;;;;;;5112465;28;20204;-66
2023/12/19 08:14:24;;;;;;;3.17;2.58;;;17.40;58.90;;;;;;5093062;28;20193;-64
2023/12/19 08:16:49;;;;;;;4.57;2.63;;;17.40;59.00;;;;;;5072822;28;20698;-65
2023/12/19 08:19:16;;;;;;;4.60;2.78;;;17.40;59.00;;;;;;5071370;28;20633;-65
2023/12/19 08:21:51;;;;;;;3.92;2.53;;;17.40;59.00;;;;;;5072250;28;20259;-66
2023/12/19 08:24:16;;;;;;;4.22;3.35;;;17.30;59.10;;;;;;5072159;28;20197;-65
2023/12/19 08:26:49;;;;;;;4.03;3.20;;;17.30;59.10;;;;;;5071763;28;20634;-65
2023/12/19 08:29:15;;;;;;;3.53;2.92;;;17.20;59.20;;;;;;5072280;28;20569;-65
2023/12/19 08:31:40;;;;;;;5.00;3.70;;;17.30;59.30;;;;;;5072291;28;20669;-65
2023/12/19 08:34:06;;;;;;;6.05;3.17;;;17.20;59.20;;;;;;5071607;28;20182;-65
2023/12/19 08:36:32;;;;;;;3.33;2.83;;;17.20;59.30;;;;;;5072108;28;20249;-66
2023/12/19 08:38:57;;;;;;;3.20;2.60;;;17.30;59.40;;;;;;5071782;28;20179;-66
2023/12/19 08:41:24;;;;;;;3.50;2.80;;;17.30;59.30;;;;;;5071333;28;20265;-66
2023/12/19 08:43:49;;;;;;;3.63;3.00;;;17.30;59.40;;;;;;5071437;28;20193;-66
2023/12/19 08:46:18;;;;;;;3.92;2.88;;;17.30;59.30;;;;;;5072112;28;20175;-65
2023/12/19 08:48:44;;;;;;;2.95;2.60;;;17.30;59.40;;;;;;5071603;28;20171;-66
2023/12/19 08:51:12;;;;;;;3.15;2.70;;;17.30;59.30;;;;;;5085206;28;20279;-65
2023/12/19 08:53:38;;;;;;;2.70;2.50;;;17.30;59.30;;;;;;5092083;28;20189;-66
2023/12/19 08:56:04;;;;;;;3.53;2.60;;;17.30;59.40;;;;;;5091882;28;20170;-66
2023/12/19 08:58:30;;;;;;;3.67;2.67;;;17.30;59.40;;;;;;5092036;28;20548;-66
2023/12/19 09:00:56;;;;;;;3.78;2.78;;;17.30;59.30;;;;;;5092423;28;20178;-65
2023/12/19 09:03:23;;;;;;;3.00;2.70;;;17.30;59.40;;;;;;5091332;28;20177;-65
2023/12/19 09:05:48;;;;;;;2.85;2.47;;;17.30;59.40;;;;;;5092280;28;20201;-66
2023/12/19 09:08:14;;;;;;;3.00;2.70;;;17.30;59.40;;;;;;5091098;28;20871;-66
2023/12/19 09:10:39;;;;;;;2.40;2.20;;;17.30;59.40;;;;;;5092179;28;20624;-66
2023/12/19 09:13:05;;;;;;;2.92;2.60;;;17.30;59.50;;;;;;5092046;28;20664;-65
2023/12/19 09:15:31;;;;;;;3.10;2.85;;;17.30;59.40;;;;;;5091087;28;20177;-65
2023/12/19 09:17:56;;;;;;;3.00;2.50;;;17.30;59.40;;;;;;5092095;28;20173;-65
2023/12/19 09:20:23;;;;;;;4.93;2.70;;;17.30;59.50;;;;;;5091817;28;20235;-65
2023/12/19 09:22:49;;;;;;;3.22;2.60;;;17.30;59.50;;;;;;5091355;28;20621;-64
2023/12/19 09:25:15;;;;;;;4.82;2.92;;;17.30;60.10;;;;;;5091979;28;20188;-65
2023/12/19 09:27:41;;;;;;;3.42;2.40;;;17.30;59.50;;;;;;5091950;28;20178;-65
2023/12/19 09:30:08;;;;;;;5.13;3.10;;;17.20;59.50;;;;;;5091486;28;20178;-65
2023/12/19 09:32:34;;;;;;;3.17;2.60;;;17.30;59.50;;;;;;5091593;28;20213;-65
2023/12/19 09:34:59;;;;;;;2.63;2.42;;;17.30;59.60;;;;;;5092049;28;20162;-65
2023/12/19 09:37:26;;;;;;;3.63;2.53;;;17.30;59.60;;;;;;5091053;28;20227;-65
2023/12/19 09:39:52;;;;;;;2.20;2.10;;;17.30;59.50;;;;;;5091898;28;20578;-65
2023/12/19 09:42:19;;;;;;;2.00;1.80;;;17.30;59.50;;;;;;5091562;28;20231;-65
2023/12/19 09:44:45;;;;;;;2.28;2.08;;;17.30;59.60;;;;;;5073429;28;20388;-65
2023/12/19 09:47:11;;;;;;;3.10;2.60;;;17.30;59.40;;;;;;5091888;28;20543;-65
2023/12/19 09:49:39;;;;;;;3.97;2.30;;;17.20;59.50;;;;;;5073591;28;20570;-65
2023/12/19 09:52:05;;;;;;;2.47;2.28;;;17.20;59.70;;;;;;5094986;28;20278;-65
2023/12/19 09:54:30;;;;;;;2.92;2.38;;;17.10;59.70;;;;;;5077505;28;20633;-65
2023/12/19 09:56:58;;;;;;;2.28;2.08;;;17.00;59.80;;;;;;5061042;28;20547;-65
2023/12/19 09:59:23;;;;;;;2.17;1.98;;;17.00;59.90;;;;;;5076636;28;20178;-67
2023/12/19 10:01:49;;;;;;;2.40;2.20;;;16.90;60.10;;;;;;5060757;28;20223;-67
2023/12/19 10:04:14;;;;;;;3.47;2.30;;;16.90;60.10;;;;;;5094799;28;20174;-67
2023/12/19 10:07:00;;;;;;;2.97;2.20;;;17.00;60.20;;;;;;5094594;28;20170;-67
2023/12/19 10:09:26;;;;;;;4.00;2.20;;;17.00;60.20;;;;;;5094571;28;20640;-69
2023/12/19 10:12:09;;;;;;;3.53;2.13;;;17.00;60.30;;;;;;5094376;28;20205;-68
2023/12/19 10:14:35;;;;;;;3.20;1.98;;;17.10;60.30;;;;;;5094674;28;20204;-67
2023/12/19 10:17:04;;;;;;;2.20;1.75;;;17.00;60.10;;;;;;5094827;28;20178;-66
2023/12/19 10:19:30;;;;;;;2.45;2.20;;;17.00;60.10;;;;;;5093043;28;20652;-67
2023/12/19 10:22:06;;;;;;;1.83;1.63;;;17.00;60.20;;;;;;5094953;28;20363;-68
2023/12/19 10:24:31;;;;;;;2.10;1.88;;;17.00;60.20;;;;;;5094866;28;20230;-67
2023/12/19 10:27:00;;;;;;;2.58;1.88;;;17.00;61.20;;;;;;5094115;28;20577;-65
2023/12/19 10:29:26;;;;;;;2.78;1.92;;;17.00;60.30;;;;;;5094062;28;20182;-65
2023/12/19 10:31:52;;;;;;;4.07;2.47;;;16.90;60.40;;;;;;5094782;28;20218;-65
2023/12/19 10:34:18;;;;;;;3.97;2.00;;;16.90;60.60;;;;;;5076001;28;20181;-72
2023/12/19 10:36:44;;;;;;;2.25;2.00;;;16.80;60.60;;;;;;5094878;28;20519;-65
2023/12/19 10:39:11;;;;;;;2.85;2.05;;;16.90;60.80;;;;;;5094546;28;20640;-65
2023/12/19 10:41:40;;;;;;;2.45;2.17;;;16.90;60.70;;;;;;5093752;28;20185;-65
2023/12/19 10:44:05;;;;;;;2.45;2.10;;;16.90;60.80;;;;;;5094264;28;20181;-65
2023/12/19 10:46:31;;;;;;;2.25;2.05;;;16.90;60.70;;;;;;5076204;28;20170;-65
2023/12/19 10:48:59;;;;;;;3.53;2.53;;;16.90;60.80;;;;;;5094188;28;20170;-66
2023/12/19 10:51:39;;;;;;;2.25;2.05;;;16.80;60.70;;;;;;5093998;28;20326;-65
2023/12/19 10:54:09;;;;;;;2.17;1.95;;;16.80;60.70;;;;;;5093842;28;20205;-64
2023/12/19 10:56:39;;;;;;;2.50;1.98;;;16.80;61.10;;;;;;5093794;28;20200;-66
2023/12/19 10:59:04;;;;;;;2.60;2.40;;;16.80;60.90;;;;;;5076660;28;20177;-66
2023/12/19 11:01:37;;;;;;;2.80;2.03;;;16.70;60.70;;;;;;5074876;28;20173;-65
2023/12/19 11:04:04;;;;;;;3.03;2.40;;;16.70;61.00;;;;;;5077058;28;20174;-66
2023/12/19 11:06:34;;;;;;;2.53;1.95;;;16.70;61.00;;;;;;5076015;28;20185;-67
2023/12/19 11:09:05;;;;;;;2.35;2.15;;;16.70;61.80;;;;;;5075609;28;20181;-66
2023/12/19 11:11:35;;;;;;;1.90;1.70;;;16.70;60.80;;;;;;5093784;28;20222;-66
2023/12/19 11:14:00;;;;;;;2.60;1.90;;;16.70;60.80;;;;;;5094111;28;20263;-66
2023/12/19 11:16:42;;;;;;;2.40;2.20;;;16.70;60.80;;;;;;5074786;28;20204;-66
2023/12/19 11:19:15;;;;;;;2.58;1.92;;;16.70;60.80;;;;;;5093566;28;20586;-64
2023/12/19 11:21:49;;;;;;;3.95;1.73;;;16.70;60.80;;;;;;5076019;28;20185;-66
2023/12/19 11:24:22;;;;;;;2.03;1.83;;;16.70;60.90;;;;;;5093679;28;20178;-66
2023/12/19 11:27:19;;;;;;;2.30;2.10;;;16.60;60.90;;;;;;5075871;28;20181;-69
2023/12/19 11:29:53;;;;;;;2.90;2.20;;;16.60;61.10;;;;;;5091512;28;20660;-69
2023/12/19 11:32:28;;;;;;;2.50;1.90;;;16.60;61.00;;;;;;5093534;28;20223;-69
2023/12/19 11:35:12;;;;;;;3.58;1.70;;;16.60;60.90;;;;;;5093590;28;20170;-70
2023/12/19 11:37:44;;;;;;;2.20;1.77;;;16.60;61.00;;;;;;5092053;28;20280;-69
2023/12/19 11:40:18;;;;;;;2.00;1.88;;;16.60;60.90;;;;;;5093491;28;20204;-69
2023/12/19 11:42:45;;;;;;;1.88;1.60;;;16.60;60.90;;;;;;5075895;28;20188;-68
2023/12/19 11:45:17;;;;;;;2.75;1.83;;;16.60;60.90;;;;;;5093019;28;20179;-68
2023/12/19 11:47:43;;;;;;;1.90;1.73;;;16.70;60.90;;;;;;5093379;28;20174;-68
2023/12/19 11:50:10;;;;;;;2.10;1.90;;;16.70;60.80;;;;;;5092519;28;20228;-68
2023/12/19 11:52:36;;;;;;;1.70;1.60;;;16.60;61.60;;;;;;5092458;28;20213;-69
2023/12/19 11:55:05;;;;;;;2.53;2.33;;;16.60;60.90;;;;;;5093113;28;20535;-68
2023/12/19 11:57:31;;;;;;;2.20;1.83;;;16.60;61.00;;;;;;5092247;28;20251;-69
2023/12/19 11:59:57;;;;;;;2.95;1.70;;;16.60;61.10;;;;;;5092536;28;20194;-65
2023/12/19 12:02:36;;;;;;;2.33;1.90;;;16.50;61.10;;;;;;5092343;28;20197;-66
2023/12/19 12:05:12;;;;;;;3.15;1.75;;;16.50;61.30;;;;;;5103783;28;20176;-67
2023/12/19 12:07:42;;;;;;;1.60;1.50;;;16.50;61.50;;;;;;5112851;28;20253;-67
2023/12/19 12:10:09;;;;;;;2.67;1.73;;;16.50;61.50;;;;;;5113526;28;20253;-68
2023/12/19 12:12:35;;;;;;;1.85;1.75;;;16.40;61.70;;;;;;5111741;28;20240;-67
2023/12/19 12:15:18;;;;;;;2.97;2.00;;;16.50;61.50;;;;;;5113476;28;20686;-68
2023/12/19 12:17:45;;;;;;;4.47;1.60;;;16.40;61.40;;;;;;5095975;28;20184;-67
2023/12/19 12:20:10;;;;;;;5.63;1.58;;;16.40;61.70;;;;;;5112637;28;20177;-67
2023/12/19 12:22:36;;;;;;;3.20;2.00;;;16.40;61.40;;;;;;5112997;28;20181;-70
2023/12/19 12:25:05;;;;;;;3.60;1.90;;;16.40;61.40;;;;;;5112839;28;20671;-69
2023/12/19 12:27:30;;;;;;;1.67;1.30;;;16.40;61.40;;;;;;5094773;28;20237;-68
2023/12/19 12:29:56;;;;;;;2.63;1.98;;;16.40;61.40;;;;;;5112841;28;20181;-68
2023/12/19 12:32:25;;;;;;;3.17;1.60;;;16.40;61.60;;;;;;5111819;28;20233;-67
2023/12/19 12:34:50;;;;;;;5.70;2.47;;;16.40;61.50;;;;;;5113165;28;20177;-68
2023/12/19 12:37:19;;;;;;;2.17;1.80;;;16.40;61.60;;;;;;5112630;28;20510;-69
2023/12/19 12:39:45;;;;;;;1.67;1.50;;;16.40;61.70;;;;;;5112263;28;20179;-69
2023/12/19 12:42:13;;;;;;;2.08;1.88;;;16.40;61.70;;;;;;5112305;28;20530;-70
2023/12/19 12:44:39;;;;;;;5.65;1.90;;;16.40;61.70;;;;;;5112773;28;20226;-68
2023/12/19 12:47:08;;;;;;;1.98;1.60;;;16.40;61.80;;;;;;5111999;28;20185;-68